sensor_id;sensor_type;location;lat;lon;timestamp;P1;durP1;ratioP1;P2;durP2;ratioP2
59734;SDS011;64362;45.620;4.920;2023-03-24T00:00:03;4.72;;;3.42;;
59734;SDS011;64362;45.620;4.920;2023-03-24T00:02:35;4.38;;;3.35;;
59734;SDS011;64362;45.620;4.920;2023-03-24T00:05:05;5.78;;;3.28;;
59734;SDS011;64362;45.620;4.920;2023-03-24T00:07:32;4.05;;;3.15;;
59734;SDS011;64362;45.620;4.920;2023-03-24T00:09:58;6.00;;;2.95;;
59734;SDS011;64362;45.620;4.920;2023-03-24T00:12:24;3.97;;;3.15;;
59734;SDS011;64362;45.620;4.920;2023-03-24T00:14:50;3.78;;;3.25;;
59734;SDS011;64362;45.620;4.920;2023-03-24T00:17:18;4.60;;;2.95;;
59734;SDS011;64362;45.620;4.920;2023-03-24T00:19:44;3.70;;;2.50;;
59734;SDS011;64362;45.620;4.920;2023-03-24T00:22:10;4.50;;;3.40;;
59734;SDS011;64362;45.620;4.920;2023-03-24T00:24:41;5.32;;;3.08;;
59734;SDS011;64362;45.620;4.920;2023-03-24T00:27:10;4.20;;;3.10;;
59734;SDS011;64362;45.620;4.920;2023-03-24T00:29:38;4.55;;;3.47;;
59734;SDS011;64362;45.620;4.920;2023-03-24T00:32:06;3.63;;;2.95;;
59734;SDS011;64362;45.620;4.920;2023-03-24T00:34:32;4.35;;;2.58;;
59734;SDS011;64362;45.620;4.920;2023-03-24T00:37:03;5.38;;;2.95;;
59734;SDS011;64362;45.620;4.920;2023-03-24T00:39:29;4.55;;;2.88;;
59734;SDS011;64362;45.620;4.920;2023-03-24T00:41:55;4.38;;;3.10;;
59734;SDS011;64362;45.620;4.920;2023-03-24T00:44:23;4.00;;;2.58;;
59734;SDS011;64362;45.620;4.920;2023-03-24T00:46:49;4.90;;;2.95;;
59734;SDS011;64362;45.620;4.920;2023-03-24T00:49:27;4.43;;;2.83;;
59734;SDS011;64362;45.620;4.920;2023-03-24T00:52:20;3.05;;;2.50;;
59734;SDS011;64362;45.620;4.920;2023-03-24T00:54:47;4.53;;;2.80;;
59734;SDS011;64362;45.620;4.920;2023-03-24T00:57:14;3.28;;;2.55;;
59734;SDS011;64362;45.620;4.920;2023-03-24T00:59:49;4.35;;;2.97;;
59734;SDS011;64362;45.620;4.920;2023-03-24T01:02:17;4.05;;;2.60;;
59734;SDS011;64362;45.620;4.920;2023-03-24T01:04:55;3.72;;;2.70;;
59734;SDS011;64362;45.620;4.920;2023-03-24T01:07:23;4.22;;;2.60;;
59734;SDS011;64362;45.620;4.920;2023-03-24T01:09:50;4.13;;;2.70;;
59734;SDS011;64362;45.620;4.920;2023-03-24T01:12:22;3.25;;;2.42;;
59734;SDS011;64362;45.620;4.920;2023-03-24T01:14:52;4.95;;;2.85;;
59734;SDS011;64362;45.620;4.920;2023-03-24T01:17:19;3.65;;;2.63;;
59734;SDS011;64362;45.620;4.920;2023-03-24T01:19:46;3.42;;;2.60;;
59734;SDS011;64362;45.620;4.920;2023-03-24T01:22:13;3.15;;;2.70;;
59734;SDS011;64362;45.620;4.920;2023-03-24T01:24:39;3.00;;;2.70;;
59734;SDS011;64362;45.620;4.920;2023-03-24T01:27:04;3.65;;;2.50;;
59734;SDS011;64362;45.620;4.920;2023-03-24T01:29:30;3.78;;;2.40;;
59734;SDS011;64362;45.620;4.920;2023-03-24T01:31:56;2.67;;;2.28;;
59734;SDS011;64362;45.620;4.920;2023-03-24T01:34:21;4.20;;;2.72;;
59734;SDS011;64362;45.620;4.920;2023-03-24T01:36:47;3.38;;;2.20;;
59734;SDS011;64362;45.620;4.920;2023-03-24T01:39:13;3.15;;;2.72;;
59734;SDS011;64362;45.620;4.920;2023-03-24T01:41:38;4.18;;;2.70;;
59734;SDS011;64362;45.620;4.920;2023-03-24T01:46:54;3.15;;;2.38;;
59734;SDS011;64362;45.620;4.920;2023-03-24T01:49:20;3.25;;;2.40;;
59734;SDS011;64362;45.620;4.920;2023-03-24T01:51:47;2.85;;;2.47;;
59734;SDS011;64362;45.620;4.920;2023-03-24T01:54:19;3.80;;;2.38;;
59734;SDS011;64362;45.620;4.920;2023-03-24T01:57:10;3.85;;;2.60;;
59734;SDS011;64362;45.620;4.920;2023-03-24T01:59:54;3.33;;;2.95;;
59734;SDS011;64362;45.620;4.920;2023-03-24T02:02:56;3.47;;;2.30;;
59734;SDS011;64362;45.620;4.920;2023-03-24T02:05:29;3.13;;;2.42;;
59734;SDS011;64362;45.620;4.920;2023-03-24T02:08:03;3.28;;;2.70;;
59734;SDS011;64362;45.620;4.920;2023-03-24T02:10:43;3.20;;;2.78;;
59734;SDS011;64362;45.620;4.920;2023-03-24T02:13:09;2.63;;;2.30;;
59734;SDS011;64362;45.620;4.920;2023-03-24T02:15:37;3.25;;;2.65;;
59734;SDS011;64362;45.620;4.920;2023-03-24T02:21:07;2.70;;;2.40;;
59734;SDS011;64362;45.620;4.920;2023-03-24T02:32:00;3.40;;;2.67;;
59734;SDS011;64362;45.620;4.920;2023-03-24T02:45:29;3.55;;;2.35;;
59734;SDS011;64362;45.620;4.920;2023-03-24T02:50:47;3.85;;;2.25;;
59734;SDS011;64362;45.620;4.920;2023-03-24T02:59:41;3.10;;;2.22;;
59734;SDS011;64362;45.620;4.920;2023-03-24T03:02:33;2.92;;;2.53;;
59734;SDS011;64362;45.620;4.920;2023-03-24T03:05:03;3.45;;;2.80;;
59734;SDS011;64362;45.620;4.920;2023-03-24T03:07:32;3.70;;;2.55;;
59734;SDS011;64362;45.620;4.920;2023-03-24T03:12:40;2.95;;;2.53;;
59734;SDS011;64362;45.620;4.920;2023-03-24T03:15:08;3.88;;;2.50;;
59734;SDS011;64362;45.620;4.920;2023-03-24T03:17:41;3.55;;;2.60;;
59734;SDS011;64362;45.620;4.920;2023-03-24T03:20:13;2.80;;;2.50;;
59734;SDS011;64362;45.620;4.920;2023-03-24T03:22:44;3.35;;;2.65;;
59734;SDS011;64362;45.620;4.920;2023-03-24T03:25:14;3.17;;;2.88;;
59734;SDS011;64362;45.620;4.920;2023-03-24T03:27:41;3.40;;;2.72;;
59734;SDS011;64362;45.620;4.920;2023-03-24T03:30:11;3.30;;;2.72;;
59734;SDS011;64362;45.620;4.920;2023-03-24T03:32:44;3.78;;;3.10;;
59734;SDS011;64362;45.620;4.920;2023-03-24T03:35:21;5.05;;;2.80;;
59734;SDS011;64362;45.620;4.920;2023-03-24T03:37:56;3.28;;;2.97;;
59734;SDS011;64362;45.620;4.920;2023-03-24T03:40:28;4.07;;;2.80;;
59734;SDS011;64362;45.620;4.920;2023-03-24T03:43:08;2.90;;;2.58;;
59734;SDS011;64362;45.620;4.920;2023-03-24T03:45:34;4.10;;;3.08;;
59734;SDS011;64362;45.620;4.920;2023-03-24T03:47:59;3.22;;;2.72;;
59734;SDS011;64362;45.620;4.920;2023-03-24T03:50:26;4.05;;;3.20;;
59734;SDS011;64362;45.620;4.920;2023-03-24T03:52:59;3.75;;;2.80;;
59734;SDS011;64362;45.620;4.920;2023-03-24T03:55:25;3.88;;;2.83;;
59734;SDS011;64362;45.620;4.920;2023-03-24T03:57:51;3.88;;;3.00;;
59734;SDS011;64362;45.620;4.920;2023-03-24T04:00:23;4.15;;;2.85;;
59734;SDS011;64362;45.620;4.920;2023-03-24T04:15:04;3.42;;;2.90;;
59734;SDS011;64362;45.620;4.920;2023-03-24T04:18:33;3.08;;;2.78;;
59734;SDS011;64362;45.620;4.920;2023-03-24T04:23:47;4.05;;;3.03;;
59734;SDS011;64362;45.620;4.920;2023-03-24T04:29:12;3.30;;;2.63;;
59734;SDS011;64362;45.620;4.920;2023-03-24T04:34:19;4.40;;;2.83;;
59734;SDS011;64362;45.620;4.920;2023-03-24T04:36:48;3.67;;;2.20;;
59734;SDS011;64362;45.620;4.920;2023-03-24T04:39:27;3.10;;;2.60;;
59734;SDS011;64362;45.620;4.920;2023-03-24T04:41:58;3.90;;;2.45;;
59734;SDS011;64362;45.620;4.920;2023-03-24T04:44:26;3.47;;;2.63;;
59734;SDS011;64362;45.620;4.920;2023-03-24T04:47:14;4.28;;;2.70;;
59734;SDS011;64362;45.620;4.920;2023-03-24T04:50:02;4.32;;;2.80;;
59734;SDS011;64362;45.620;4.920;2023-03-24T04:52:31;3.22;;;2.53;;
59734;SDS011;64362;45.620;4.920;2023-03-24T04:54:58;4.10;;;2.88;;
59734;SDS011;64362;45.620;4.920;2023-03-24T04:57:25;3.45;;;2.67;;
59734;SDS011;64362;45.620;4.920;2023-03-24T04:59:58;3.58;;;2.75;;
59734;SDS011;64362;45.620;4.920;2023-03-24T05:02:23;4.55;;;2.70;;
59734;SDS011;64362;45.620;4.920;2023-03-24T05:07:40;3.03;;;2.67;;
59734;SDS011;64362;45.620;4.920;2023-03-24T05:10:09;3.47;;;2.80;;
59734;SDS011;64362;45.620;4.920;2023-03-24T05:12:41;4.13;;;2.90;;
59734;SDS011;64362;45.620;4.920;2023-03-24T05:15:16;3.15;;;2.70;;
59734;SDS011;64362;45.620;4.920;2023-03-24T05:17:42;4.20;;;2.78;;
59734;SDS011;64362;45.620;4.920;2023-03-24T05:20:09;4.38;;;2.60;;
59734;SDS011;64362;45.620;4.920;2023-03-24T05:22:41;3.17;;;2.67;;
59734;SDS011;64362;45.620;4.920;2023-03-24T05:25:07;3.80;;;3.05;;
59734;SDS011;64362;45.620;4.920;2023-03-24T05:27:32;2.83;;;2.40;;
59734;SDS011;64362;45.620;4.920;2023-03-24T05:30:07;3.20;;;2.60;;
59734;SDS011;64362;45.620;4.920;2023-03-24T05:32:35;3.33;;;2.97;;
59734;SDS011;64362;45.620;4.920;2023-03-24T05:35:00;3.65;;;2.78;;
59734;SDS011;64362;45.620;4.920;2023-03-24T05:37:30;2.95;;;2.65;;
59734;SDS011;64362;45.620;4.920;2023-03-24T05:39:56;3.30;;;3.00;;
59734;SDS011;64362;45.620;4.920;2023-03-24T05:42:32;3.75;;;2.92;;
59734;SDS011;64362;45.620;4.920;2023-03-24T05:45:00;4.40;;;2.97;;
59734;SDS011;64362;45.620;4.920;2023-03-24T05:47:26;3.72;;;3.13;;
59734;SDS011;64362;45.620;4.920;2023-03-24T05:49:52;3.70;;;2.65;;
59734;SDS011;64362;45.620;4.920;2023-03-24T05:52:18;3.72;;;2.97;;
59734;SDS011;64362;45.620;4.920;2023-03-24T05:54:46;3.97;;;2.90;;
59734;SDS011;64362;45.620;4.920;2023-03-24T05:57:19;3.22;;;2.80;;
59734;SDS011;64362;45.620;4.920;2023-03-24T06:00:04;3.60;;;2.53;;
59734;SDS011;64362;45.620;4.920;2023-03-24T06:02:42;4.43;;;2.95;;
59734;SDS011;64362;45.620;4.920;2023-03-24T06:05:22;4.10;;;2.97;;
59734;SDS011;64362;45.620;4.920;2023-03-24T06:07:48;3.50;;;3.00;;
59734;SDS011;64362;45.620;4.920;2023-03-24T06:10:13;3.08;;;2.72;;
59734;SDS011;64362;45.620;4.920;2023-03-24T06:12:47;4.75;;;2.78;;
59734;SDS011;64362;45.620;4.920;2023-03-24T06:15:12;3.88;;;2.97;;
59734;SDS011;64362;45.620;4.920;2023-03-24T06:17:43;3.20;;;2.90;;
59734;SDS011;64362;45.620;4.920;2023-03-24T06:20:21;4.00;;;2.78;;
59734;SDS011;64362;45.620;4.920;2023-03-24T06:23:00;3.85;;;2.80;;
59734;SDS011;64362;45.620;4.920;2023-03-24T06:25:34;5.40;;;3.40;;
59734;SDS011;64362;45.620;4.920;2023-03-24T06:28:18;7.40;;;3.50;;
59734;SDS011;64362;45.620;4.920;2023-03-24T06:30:45;4.68;;;3.15;;
59734;SDS011;64362;45.620;4.920;2023-03-24T06:33:15;6.30;;;3.50;;
59734;SDS011;64362;45.620;4.920;2023-03-24T06:35:42;7.00;;;3.10;;
59734;SDS011;64362;45.620;4.920;2023-03-24T06:38:11;7.65;;;3.15;;
59734;SDS011;64362;45.620;4.920;2023-03-24T06:40:38;5.20;;;3.13;;
59734;SDS011;64362;45.620;4.920;2023-03-24T06:43:05;8.02;;;3.13;;
59734;SDS011;64362;45.620;4.920;2023-03-24T06:45:33;5.82;;;3.17;;
59734;SDS011;64362;45.620;4.920;2023-03-24T06:48:00;7.25;;;3.25;;
59734;SDS011;64362;45.620;4.920;2023-03-24T06:50:25;10.55;;;3.65;;
59734;SDS011;64362;45.620;4.920;2023-03-24T06:52:57;7.63;;;3.10;;
59734;SDS011;64362;45.620;4.920;2023-03-24T06:55:23;7.80;;;2.67;;
59734;SDS011;64362;45.620;4.920;2023-03-24T06:57:51;6.50;;;3.25;;
59734;SDS011;64362;45.620;4.920;2023-03-24T07:00:29;8.30;;;3.63;;
59734;SDS011;64362;45.620;4.920;2023-03-24T07:03:20;7.28;;;2.80;;
59734;SDS011;64362;45.620;4.920;2023-03-24T07:06:07;8.15;;;2.97;;
59734;SDS011;64362;45.620;4.920;2023-03-24T07:08:34;7.18;;;2.97;;
59734;SDS011;64362;45.620;4.920;2023-03-24T07:11:00;7.45;;;3.40;;
59734;SDS011;64362;45.620;4.920;2023-03-24T07:13:27;9.02;;;3.35;;
59734;SDS011;64362;45.620;4.920;2023-03-24T07:16:00;5.93;;;3.63;;
59734;SDS011;64362;45.620;4.920;2023-03-24T07:18:26;9.52;;;3.15;;
59734;SDS011;64362;45.620;4.920;2023-03-24T07:20:57;10.18;;;3.58;;
59734;SDS011;64362;45.620;4.920;2023-03-24T07:23:22;8.70;;;2.92;;
59734;SDS011;64362;45.620;4.920;2023-03-24T07:25:55;7.20;;;3.35;;
59734;SDS011;64362;45.620;4.920;2023-03-24T07:28:38;7.68;;;3.10;;
59734;SDS011;64362;45.620;4.920;2023-03-24T07:31:05;6.50;;;3.10;;
59734;SDS011;64362;45.620;4.920;2023-03-24T07:33:35;5.40;;;3.10;;
59734;SDS011;64362;45.620;4.920;2023-03-24T07:36:04;6.85;;;2.80;;
59734;SDS011;64362;45.620;4.920;2023-03-24T07:38:32;6.35;;;2.80;;
59734;SDS011;64362;45.620;4.920;2023-03-24T07:41:02;7.25;;;3.08;;
59734;SDS011;64362;45.620;4.920;2023-03-24T07:43:30;4.47;;;2.78;;
59734;SDS011;64362;45.620;4.920;2023-03-24T07:46:15;9.18;;;3.53;;
59734;SDS011;64362;45.620;4.920;2023-03-24T07:48:41;5.10;;;2.92;;
59734;SDS011;64362;45.620;4.920;2023-03-24T07:51:07;5.45;;;3.00;;
59734;SDS011;64362;45.620;4.920;2023-03-24T07:53:55;4.55;;;2.88;;
59734;SDS011;64362;45.620;4.920;2023-03-24T07:56:37;7.68;;;2.95;;
59734;SDS011;64362;45.620;4.920;2023-03-24T07:59:04;5.97;;;2.80;;
59734;SDS011;64362;45.620;4.920;2023-03-24T08:01:37;5.07;;;2.80;;
59734;SDS011;64362;45.620;4.920;2023-03-24T08:04:06;4.75;;;3.05;;
59734;SDS011;64362;45.620;4.920;2023-03-24T08:07:07;5.72;;;2.58;;
59734;SDS011;64362;45.620;4.920;2023-03-24T08:09:33;7.90;;;2.90;;
59734;SDS011;64362;45.620;4.920;2023-03-24T08:11:58;7.50;;;2.60;;
59734;SDS011;64362;45.620;4.920;2023-03-24T08:14:24;8.63;;;2.72;;
59734;SDS011;64362;45.620;4.920;2023-03-24T08:16:49;4.75;;;2.67;;
59734;SDS011;64362;45.620;4.920;2023-03-24T08:19:15;5.85;;;2.70;;
59734;SDS011;64362;45.620;4.920;2023-03-24T08:21:40;4.93;;;3.00;;
59734;SDS011;64362;45.620;4.920;2023-03-24T08:24:06;4.45;;;2.80;;
59734;SDS011;64362;45.620;4.920;2023-03-24T08:26:31;4.65;;;2.65;;
59734;SDS011;64362;45.620;4.920;2023-03-24T08:28:59;3.13;;;2.35;;
59734;SDS011;64362;45.620;4.920;2023-03-24T08:31:30;4.20;;;2.63;;
59734;SDS011;64362;45.620;4.920;2023-03-24T08:33:59;3.75;;;2.75;;
59734;SDS011;64362;45.620;4.920;2023-03-24T08:36:25;3.78;;;2.42;;
59734;SDS011;64362;45.620;4.920;2023-03-24T08:38:51;3.15;;;2.08;;
59734;SDS011;64362;45.620;4.920;2023-03-24T08:41:19;4.25;;;2.15;;
59734;SDS011;64362;45.620;4.920;2023-03-24T08:43:45;4.55;;;2.47;;
59734;SDS011;64362;45.620;4.920;2023-03-24T08:46:11;3.60;;;2.08;;
59734;SDS011;64362;45.620;4.920;2023-03-24T08:48:36;4.63;;;2.50;;
59734;SDS011;64362;45.620;4.920;2023-03-24T08:51:09;4.25;;;2.50;;
59734;SDS011;64362;45.620;4.920;2023-03-24T08:53:36;3.40;;;2.50;;
59734;SDS011;64362;45.620;4.920;2023-03-24T08:56:01;4.88;;;2.40;;
59734;SDS011;64362;45.620;4.920;2023-03-24T08:58:26;5.20;;;2.53;;
59734;SDS011;64362;45.620;4.920;2023-03-24T09:00:52;3.50;;;2.70;;
59734;SDS011;64362;45.620;4.920;2023-03-24T09:03:17;4.88;;;2.53;;
59734;SDS011;64362;45.620;4.920;2023-03-24T09:05:46;4.78;;;3.35;;
59734;SDS011;64362;45.620;4.920;2023-03-24T09:08:12;2.85;;;2.40;;
59734;SDS011;64362;45.620;4.920;2023-03-24T09:10:39;3.38;;;2.60;;
59734;SDS011;64362;45.620;4.920;2023-03-24T09:13:06;5.45;;;2.50;;
59734;SDS011;64362;45.620;4.920;2023-03-24T09:15:31;4.93;;;2.45;;
59734;SDS011;64362;45.620;4.920;2023-03-24T09:17:57;4.13;;;2.45;;
59734;SDS011;64362;45.620;4.920;2023-03-24T09:20:23;4.85;;;2.53;;
59734;SDS011;64362;45.620;4.920;2023-03-24T09:22:48;3.72;;;2.30;;
59734;SDS011;64362;45.620;4.920;2023-03-24T09:25:15;3.15;;;2.70;;
59734;SDS011;64362;45.620;4.920;2023-03-24T09:27:42;3.45;;;2.70;;
59734;SDS011;64362;45.620;4.920;2023-03-24T09:30:09;4.32;;;2.80;;
59734;SDS011;64362;45.620;4.920;2023-03-24T09:32:35;4.60;;;2.70;;
59734;SDS011;64362;45.620;4.920;2023-03-24T09:35:01;3.55;;;2.60;;
59734;SDS011;64362;45.620;4.920;2023-03-24T09:37:30;3.00;;;2.42;;
59734;SDS011;64362;45.620;4.920;2023-03-24T09:39:56;4.43;;;2.70;;
59734;SDS011;64362;45.620;4.920;2023-03-24T09:42:24;3.38;;;2.83;;
59734;SDS011;64362;45.620;4.920;2023-03-24T09:44:53;4.13;;;2.72;;
59734;SDS011;64362;45.620;4.920;2023-03-24T09:53:19;3.20;;;2.85;;
59734;SDS011;64362;45.620;4.920;2023-03-24T09:55:51;3.50;;;2.60;;
59734;SDS011;64362;45.620;4.920;2023-03-24T09:58:17;3.17;;;2.22;;
59734;SDS011;64362;45.620;4.920;2023-03-24T10:00:43;3.50;;;2.72;;
59734;SDS011;64362;45.620;4.920;2023-03-24T10:03:30;3.17;;;2.80;;
59734;SDS011;64362;45.620;4.920;2023-03-24T10:05:57;3.95;;;2.63;;
59734;SDS011;64362;45.620;4.920;2023-03-24T10:08:36;3.63;;;2.78;;
59734;SDS011;64362;45.620;4.920;2023-03-24T10:16:29;4.10;;;2.55;;
59734;SDS011;64362;45.620;4.920;2023-03-24T10:29:53;3.08;;;2.30;;
59734;SDS011;64362;45.620;4.920;2023-03-24T10:32:21;3.42;;;2.55;;
59734;SDS011;64362;45.620;4.920;2023-03-24T10:34:59;3.38;;;2.22;;
59734;SDS011;64362;45.620;4.920;2023-03-24T10:37:31;2.90;;;2.38;;
59734;SDS011;64362;45.620;4.920;2023-03-24T10:39:57;3.05;;;2.53;;
59734;SDS011;64362;45.620;4.920;2023-03-24T10:42:25;3.40;;;2.50;;
59734;SDS011;64362;45.620;4.920;2023-03-24T10:44:54;3.88;;;2.58;;
59734;SDS011;64362;45.620;4.920;2023-03-24T10:47:24;2.88;;;2.28;;
59734;SDS011;64362;45.620;4.920;2023-03-24T10:49:53;2.92;;;2.30;;
59734;SDS011;64362;45.620;4.920;2023-03-24T10:52:18;3.00;;;2.40;;
59734;SDS011;64362;45.620;4.920;2023-03-24T10:54:54;4.60;;;2.53;;
59734;SDS011;64362;45.620;4.920;2023-03-24T10:57:21;2.70;;;2.20;;
59734;SDS011;64362;45.620;4.920;2023-03-24T10:59:57;3.40;;;2.17;;
59734;SDS011;64362;45.620;4.920;2023-03-24T11:02:29;3.17;;;2.40;;
59734;SDS011;64362;45.620;4.920;2023-03-24T11:07:38;3.15;;;2.25;;
59734;SDS011;64362;45.620;4.920;2023-03-24T11:10:06;4.05;;;2.45;;
59734;SDS011;64362;45.620;4.920;2023-03-24T11:12:42;3.03;;;2.22;;
59734;SDS011;64362;45.620;4.920;2023-03-24T11:15:32;2.72;;;2.08;;
59734;SDS011;64362;45.620;4.920;2023-03-24T11:18:21;3.45;;;2.63;;
59734;SDS011;64362;45.620;4.920;2023-03-24T11:20:49;2.85;;;2.35;;
59734;SDS011;64362;45.620;4.920;2023-03-24T11:26:07;2.55;;;2.35;;
59734;SDS011;64362;45.620;4.920;2023-03-24T11:28:34;3.28;;;2.28;;
59734;SDS011;64362;45.620;4.920;2023-03-24T11:31:05;4.05;;;2.13;;
59734;SDS011;64362;45.620;4.920;2023-03-24T11:33:33;2.63;;;2.10;;
59734;SDS011;64362;45.620;4.920;2023-03-24T11:36:00;2.72;;;2.00;;
59734;SDS011;64362;45.620;4.920;2023-03-24T11:38:29;2.92;;;2.50;;
59734;SDS011;64362;45.620;4.920;2023-03-24T11:40:57;2.75;;;2.30;;
59734;SDS011;64362;45.620;4.920;2023-03-24T11:43:24;3.10;;;2.35;;
59734;SDS011;64362;45.620;4.920;2023-03-24T11:46:07;2.42;;;2.17;;
59734;SDS011;64362;45.620;4.920;2023-03-24T11:48:45;2.85;;;2.10;;
59734;SDS011;64362;45.620;4.920;2023-03-24T11:51:22;2.58;;;2.28;;
59734;SDS011;64362;45.620;4.920;2023-03-24T11:53:52;3.22;;;2.03;;
59734;SDS011;64362;45.620;4.920;2023-03-24T11:56:23;2.75;;;2.00;;
59734;SDS011;64362;45.620;4.920;2023-03-24T11:58:55;2.45;;;2.25;;
59734;SDS011;64362;45.620;4.920;2023-03-24T12:09:53;4.07;;;2.10;;
59734;SDS011;64362;45.620;4.920;2023-03-24T12:12:58;2.85;;;2.00;;
59734;SDS011;64362;45.620;4.920;2023-03-24T12:17:51;3.47;;;1.73;;
59734;SDS011;64362;45.620;4.920;2023-03-24T12:26:15;4.05;;;1.80;;
59734;SDS011;64362;45.620;4.920;2023-03-24T12:28:50;3.10;;;2.05;;
59734;SDS011;64362;45.620;4.920;2023-03-24T12:39:27;2.78;;;2.10;;
59734;SDS011;64362;45.620;4.920;2023-03-24T12:50:11;4.30;;;2.17;;
59734;SDS011;64362;45.620;4.920;2023-03-24T12:55:51;4.47;;;2.53;;
59734;SDS011;64362;45.620;4.920;2023-03-24T13:06:47;4.43;;;2.20;;
59734;SDS011;64362;45.620;4.920;2023-03-24T13:09:30;3.13;;;2.03;;
59734;SDS011;64362;45.620;4.920;2023-03-24T13:15:14;5.45;;;2.58;;
59734;SDS011;64362;45.620;4.920;2023-03-24T13:17:52;4.18;;;2.10;;
59734;SDS011;64362;45.620;4.920;2023-03-24T13:20:33;5.65;;;2.88;;
59734;SDS011;64362;45.620;4.920;2023-03-24T13:25:51;5.72;;;2.70;;
59734;SDS011;64362;45.620;4.920;2023-03-24T13:28:24;4.50;;;2.38;;
59734;SDS011;64362;45.620;4.920;2023-03-24T13:30:55;3.75;;;2.30;;
59734;SDS011;64362;45.620;4.920;2023-03-24T13:33:23;3.58;;;2.50;;
59734;SDS011;64362;45.620;4.920;2023-03-24T13:38:51;3.08;;;2.25;;
59734;SDS011;64362;45.620;4.920;2023-03-24T13:41:21;3.15;;;2.53;;
59734;SDS011;64362;45.620;4.920;2023-03-24T13:43:58;3.50;;;2.40;;
59734;SDS011;64362;45.620;4.920;2023-03-24T13:46:25;3.83;;;2.50;;
59734;SDS011;64362;45.620;4.920;2023-03-24T13:48:53;3.63;;;2.47;;
59734;SDS011;64362;45.620;4.920;2023-03-24T13:51:27;3.42;;;2.50;;
59734;SDS011;64362;45.620;4.920;2023-03-24T13:54:14;3.15;;;2.50;;
59734;SDS011;64362;45.620;4.920;2023-03-24T13:56:51;4.88;;;3.00;;
59734;SDS011;64362;45.620;4.920;2023-03-24T14:04:49;2.95;;;2.30;;
59734;SDS011;64362;45.620;4.920;2023-03-24T14:15:17;3.90;;;2.58;;
59734;SDS011;64362;45.620;4.920;2023-03-24T14:17:44;2.90;;;2.60;;
59734;SDS011;64362;45.620;4.920;2023-03-24T14:20:13;3.50;;;2.78;;
59734;SDS011;64362;45.620;4.920;2023-03-24T14:22:49;4.00;;;2.47;;
59734;SDS011;64362;45.620;4.920;2023-03-24T14:25:18;3.35;;;3.05;;
59734;SDS011;64362;45.620;4.920;2023-03-24T14:27:47;3.42;;;2.55;;
59734;SDS011;64362;45.620;4.920;2023-03-24T14:32:55;3.47;;;2.67;;
59734;SDS011;64362;45.620;4.920;2023-03-24T14:35:40;3.90;;;2.47;;
59734;SDS011;64362;45.620;4.920;2023-03-24T14:40:39;2.92;;;2.20;;
59734;SDS011;64362;45.620;4.920;2023-03-24T14:51:07;5.93;;;3.13;;
59734;SDS011;64362;45.620;4.920;2023-03-24T14:53:39;4.10;;;2.75;;
59734;SDS011;64362;45.620;4.920;2023-03-24T14:56:05;3.45;;;2.40;;
59734;SDS011;64362;45.620;4.920;2023-03-24T14:58:34;3.88;;;2.92;;
59734;SDS011;64362;45.620;4.920;2023-03-24T15:01:03;3.88;;;2.60;;
59734;SDS011;64362;45.620;4.920;2023-03-24T15:06:16;6.13;;;2.75;;
59734;SDS011;64362;45.620;4.920;2023-03-24T15:08:52;3.45;;;2.90;;
59734;SDS011;64362;45.620;4.920;2023-03-24T15:11:22;3.30;;;2.65;;
59734;SDS011;64362;45.620;4.920;2023-03-24T15:13:51;5.05;;;3.03;;
59734;SDS011;64362;45.620;4.920;2023-03-24T15:18:45;4.18;;;3.05;;
59734;SDS011;64362;45.620;4.920;2023-03-24T15:21:14;4.35;;;2.47;;
59734;SDS011;64362;45.620;4.920;2023-03-24T15:26:14;4.43;;;2.92;;
59734;SDS011;64362;45.620;4.920;2023-03-24T15:28:39;3.53;;;2.65;;
59734;SDS011;64362;45.620;4.920;2023-03-24T15:31:05;4.00;;;2.60;;
59734;SDS011;64362;45.620;4.920;2023-03-24T15:33:38;3.53;;;2.60;;
59734;SDS011;64362;45.620;4.920;2023-03-24T15:36:14;6.93;;;3.10;;
59734;SDS011;64362;45.620;4.920;2023-03-24T15:38:47;6.55;;;2.90;;
59734;SDS011;64362;45.620;4.920;2023-03-24T15:41:16;5.28;;;2.63;;
59734;SDS011;64362;45.620;4.920;2023-03-24T15:43:45;5.78;;;2.50;;
59734;SDS011;64362;45.620;4.920;2023-03-24T15:46:18;4.93;;;2.20;;
59734;SDS011;64362;45.620;4.920;2023-03-24T15:48:44;5.35;;;2.53;;
59734;SDS011;64362;45.620;4.920;2023-03-24T15:51:10;3.40;;;2.35;;
59734;SDS011;64362;45.620;4.920;2023-03-24T16:01:27;5.15;;;2.50;;
59734;SDS011;64362;45.620;4.920;2023-03-24T16:04:00;4.15;;;2.45;;
59734;SDS011;64362;45.620;4.920;2023-03-24T16:06:27;5.88;;;2.50;;
59734;SDS011;64362;45.620;4.920;2023-03-24T16:08:56;6.43;;;2.60;;
59734;SDS011;64362;45.620;4.920;2023-03-24T16:11:22;5.53;;;2.47;;
59734;SDS011;64362;45.620;4.920;2023-03-24T16:13:48;11.25;;;2.53;;
59734;SDS011;64362;45.620;4.920;2023-03-24T16:18:39;4.35;;;1.75;;
59734;SDS011;64362;45.620;4.920;2023-03-24T16:23:44;6.25;;;2.33;;
59734;SDS011;64362;45.620;4.920;2023-03-24T16:26:13;5.65;;;2.35;;
59734;SDS011;64362;45.620;4.920;2023-03-24T16:28:40;4.18;;;2.10;;
59734;SDS011;64362;45.620;4.920;2023-03-24T16:31:06;4.95;;;2.00;;
59734;SDS011;64362;45.620;4.920;2023-03-24T16:33:32;5.00;;;2.17;;
59734;SDS011;64362;45.620;4.920;2023-03-24T16:35:58;5.18;;;2.30;;
59734;SDS011;64362;45.620;4.920;2023-03-24T16:38:24;5.10;;;2.10;;
59734;SDS011;64362;45.620;4.920;2023-03-24T16:40:51;6.55;;;2.53;;
59734;SDS011;64362;45.620;4.920;2023-03-24T16:43:18;9.13;;;2.20;;
59734;SDS011;64362;45.620;4.920;2023-03-24T16:45:45;7.47;;;2.35;;
59734;SDS011;64362;45.620;4.920;2023-03-24T16:48:11;10.82;;;2.80;;
59734;SDS011;64362;45.620;4.920;2023-03-24T16:50:38;8.13;;;2.60;;
59734;SDS011;64362;45.620;4.920;2023-03-24T16:53:06;11.68;;;2.88;;
59734;SDS011;64362;45.620;4.920;2023-03-24T16:55:35;8.13;;;2.63;;
59734;SDS011;64362;45.620;4.920;2023-03-24T16:58:02;14.50;;;2.80;;
59734;SDS011;64362;45.620;4.920;2023-03-24T17:00:28;9.55;;;3.42;;
59734;SDS011;64362;45.620;4.920;2023-03-24T17:02:54;9.90;;;2.50;;
59734;SDS011;64362;45.620;4.920;2023-03-24T17:07:48;6.72;;;2.33;;
59734;SDS011;64362;45.620;4.920;2023-03-24T17:10:15;10.50;;;2.60;;
59734;SDS011;64362;45.620;4.920;2023-03-24T17:12:41;10.38;;;3.08;;
59734;SDS011;64362;45.620;4.920;2023-03-24T17:15:08;6.22;;;2.03;;
59734;SDS011;64362;45.620;4.920;2023-03-24T17:17:40;8.82;;;2.42;;
59734;SDS011;64362;45.620;4.920;2023-03-24T17:20:05;7.25;;;2.33;;
59734;SDS011;64362;45.620;4.920;2023-03-24T17:22:31;6.53;;;2.28;;
59734;SDS011;64362;45.620;4.920;2023-03-24T17:24:57;9.60;;;2.22;;
59734;SDS011;64362;45.620;4.920;2023-03-24T17:27:23;8.65;;;2.22;;
59734;SDS011;64362;45.620;4.920;2023-03-24T17:29:49;6.10;;;2.90;;
59734;SDS011;64362;45.620;4.920;2023-03-24T17:32:14;7.22;;;2.10;;
59734;SDS011;64362;45.620;4.920;2023-03-24T17:34:46;7.28;;;2.35;;
59734;SDS011;64362;45.620;4.920;2023-03-24T17:37:11;5.07;;;2.10;;
59734;SDS011;64362;45.620;4.920;2023-03-24T17:39:37;7.05;;;2.10;;
59734;SDS011;64362;45.620;4.920;2023-03-24T17:42:03;5.68;;;2.00;;
59734;SDS011;64362;45.620;4.920;2023-03-24T17:44:28;5.90;;;2.17;;
59734;SDS011;64362;45.620;4.920;2023-03-24T17:46:54;6.50;;;2.30;;
59734;SDS011;64362;45.620;4.920;2023-03-24T17:49:19;8.80;;;2.17;;
59734;SDS011;64362;45.620;4.920;2023-03-24T17:51:45;6.78;;;2.20;;
59734;SDS011;64362;45.620;4.920;2023-03-24T17:54:11;8.48;;;2.55;;
59734;SDS011;64362;45.620;4.920;2023-03-24T17:56:37;7.85;;;2.30;;
59734;SDS011;64362;45.620;4.920;2023-03-24T17:59:03;7.25;;;2.30;;
59734;SDS011;64362;45.620;4.920;2023-03-24T18:01:29;6.38;;;2.03;;
59734;SDS011;64362;45.620;4.920;2023-03-24T18:03:55;10.70;;;2.42;;
59734;SDS011;64362;45.620;4.920;2023-03-24T18:06:21;8.45;;;2.30;;
59734;SDS011;64362;45.620;4.920;2023-03-24T18:08:49;7.63;;;2.28;;
59734;SDS011;64362;45.620;4.920;2023-03-24T18:11:15;6.45;;;2.20;;
59734;SDS011;64362;45.620;4.920;2023-03-24T18:13:41;5.97;;;2.38;;
59734;SDS011;64362;45.620;4.920;2023-03-24T18:16:07;10.93;;;2.42;;